createdAt,value
2019-05-09T00:00:53.371Z,1.60
2019-05-09T00:03:24.152Z,1.50
2019-05-09T00:05:54.213Z,1.13
2019-05-09T00:08:23.091Z,1.30
2019-05-09T00:10:53.508Z,1.37
2019-05-09T00:13:23.728Z,1.30
2019-05-09T00:15:54.018Z,1.23
2019-05-09T00:18:23.314Z,1.30
2019-05-09T00:20:57.416Z,1.33
2019-05-09T00:23:26.111Z,1.10
2019-05-09T00:25:54.439Z,1.13
2019-05-09T00:28:23.668Z,1.13
2019-05-09T00:31:10.172Z,1.47
2019-05-09T00:33:38.918Z,1.10
2019-05-09T00:36:07.574Z,1.40
2019-05-09T00:38:43.942Z,1.63
2019-05-09T00:41:14.015Z,1.40
2019-05-09T00:43:46.799Z,1.47
2019-05-09T00:46:30.773Z,1.50
2019-05-09T00:49:07.866Z,1.53
2019-05-09T00:51:36.193Z,1.00
2019-05-09T00:54:04.616Z,1.60
2019-05-09T00:56:33.244Z,1.70
2019-05-09T00:59:03.594Z,2.50
2019-05-09T01:01:34.211Z,2.20
2019-05-09T01:04:04.347Z,1.90
2019-05-09T01:06:34.004Z,1.70
2019-05-09T01:09:04.424Z,1.80
2019-05-09T01:11:33.386Z,2.10
2019-05-09T01:14:03.608Z,1.90
2019-05-09T01:16:33.515Z,2.60
2019-05-09T01:19:03.567Z,2.80
2019-05-09T01:21:33.360Z,3.40
2019-05-09T01:24:03.358Z,2.30
2019-05-09T01:26:33.364Z,1.93
2019-05-09T01:29:04.429Z,2.13
2019-05-09T01:31:33.299Z,2.20
2019-05-09T01:34:24.064Z,2.17
2019-05-09T01:37:05.644Z,2.70
2019-05-09T01:39:35.171Z,2.03
2019-05-09T01:42:03.959Z,1.53
2019-05-09T01:44:33.544Z,2.00
2019-05-09T01:47:03.799Z,2.10
2019-05-09T01:49:34.096Z,1.80
2019-05-09T01:52:03.355Z,2.40
2019-05-09T01:54:33.213Z,1.87
2019-05-09T01:57:03.301Z,2.67
2019-05-09T01:59:33.930Z,2.10
2019-05-09T02:02:08.172Z,2.90
2019-05-09T02:04:33.471Z,3.50
2019-05-09T02:07:04.065Z,3.60
2019-05-09T02:09:34.237Z,3.13
2019-05-09T02:12:03.815Z,3.53
2019-05-09T02:14:45.672Z,3.90
2019-05-09T02:17:25.406Z,4.13
2019-05-09T02:19:53.718Z,3.80
2019-05-09T02:22:34.904Z,4.43
2019-05-09T02:25:04.472Z,3.73
2019-05-09T02:27:33.291Z,4.00
2019-05-09T02:30:05.435Z,4.33
2019-05-09T02:32:34.646Z,3.60
2019-05-09T02:35:04.803Z,4.07
2019-05-09T02:37:31.958Z,4.23
2019-05-09T02:40:00.709Z,4.33
2019-05-09T02:42:29.492Z,3.90
2019-05-09T02:44:59.460Z,4.10
2019-05-09T02:47:28.953Z,4.00
2019-05-09T02:49:58.908Z,4.10
2019-05-09T02:52:28.704Z,3.23
2019-05-09T02:54:58.328Z,3.50
2019-05-09T02:57:29.449Z,3.30
2019-05-09T03:00:03.711Z,4.17
2019-05-09T03:02:41.611Z,5.10
2019-05-09T03:05:10.019Z,5.27
2019-05-09T03:07:50.866Z,5.43
2019-05-09T03:10:19.957Z,4.03
2019-05-09T03:12:50.079Z,4.17
2019-05-09T03:15:18.860Z,5.33
2019-05-09T03:17:49.467Z,5.10
2019-05-09T03:20:23.947Z,6.10
2019-05-09T03:22:52.549Z,4.80
2019-05-09T03:25:20.914Z,5.80
2019-05-09T03:27:52.659Z,5.20
2019-05-09T03:30:25.277Z,5.03
2019-05-09T03:32:53.596Z,5.00
2019-05-09T03:35:21.928Z,5.10
2019-05-09T03:38:07.799Z,5.90
2019-05-09T03:40:37.771Z,5.10
2019-05-09T03:43:07.972Z,4.93
2019-05-09T03:45:42.969Z,4.27
2019-05-09T03:48:18.065Z,5.47
2019-05-09T03:50:48.607Z,5.07
2019-05-09T03:53:18.426Z,5.00
2019-05-09T03:55:47.537Z,4.07
2019-05-09T03:58:18.538Z,5.20
2019-05-09T04:00:47.910Z,4.13
2019-05-09T04:03:19.831Z,4.43
2019-05-09T04:05:58.353Z,3.93
2019-05-09T04:08:18.134Z,3.03
2019-05-09T04:10:50.571Z,2.43
2019-05-09T04:13:19.638Z,3.30
2019-05-09T04:15:48.309Z,2.60
2019-05-09T04:18:17.684Z,2.43
2019-05-09T04:20:48.235Z,1.83
2019-05-09T04:23:18.464Z,2.00
2019-05-09T04:25:59.337Z,2.50
2019-05-09T04:28:28.038Z,2.60
2019-05-09T04:30:58.150Z,2.13
2019-05-09T04:33:27.954Z,2.30
2019-05-09T04:35:57.936Z,2.17
2019-05-09T04:38:27.890Z,2.10
2019-05-09T04:40:58.378Z,2.03
2019-05-09T04:43:32.262Z,2.00
2019-05-09T04:45:58.634Z,2.90
2019-05-09T04:48:37.561Z,2.33
2019-05-09T04:51:07.863Z,1.80
2019-05-09T04:53:37.646Z,2.30
2019-05-09T04:56:17.551Z,2.47
2019-05-09T04:58:48.020Z,2.60
2019-05-09T05:01:34.391Z,2.50
2019-05-09T05:04:03.081Z,2.13
2019-05-09T05:06:31.417Z,1.93
2019-05-09T05:08:59.754Z,2.40
2019-05-09T05:11:28.312Z,2.20
2019-05-09T05:13:58.690Z,1.43
2019-05-09T05:16:27.388Z,2.70
2019-05-09T05:18:58.182Z,2.43
2019-05-09T05:21:28.433Z,1.87
2019-05-09T05:24:14.301Z,1.83
2019-05-09T05:26:42.990Z,2.90
2019-05-09T05:29:11.320Z,2.50
2019-05-09T05:31:39.941Z,2.30
2019-05-09T05:34:18.140Z,2.03
2019-05-09T05:36:47.655Z,2.10
2019-05-09T05:39:17.875Z,2.27
2019-05-09T05:41:48.279Z,1.90
2019-05-09T05:44:17.785Z,2.57
2019-05-09T05:47:04.505Z,1.80
2019-05-09T05:49:32.956Z,2.10
2019-05-09T05:52:01.599Z,2.47
2019-05-09T05:54:29.941Z,2.60
2019-05-09T05:56:58.280Z,2.03
2019-05-09T05:59:28.604Z,2.27
2019-05-09T06:01:58.397Z,2.23
2019-05-09T06:04:27.645Z,2.07
2019-05-09T06:06:58.681Z,2.60
2019-05-09T06:09:28.071Z,2.27
2019-05-09T06:11:57.796Z,1.77
2019-05-09T06:14:28.425Z,1.90
2019-05-09T06:16:58.829Z,1.77
2019-05-09T06:19:28.646Z,2.07
2019-05-09T06:21:57.499Z,1.87
2019-05-09T06:24:28.202Z,1.90
2019-05-09T06:26:58.592Z,1.83
2019-05-09T06:29:28.568Z,1.90
2019-05-09T06:31:58.489Z,1.87
2019-05-09T06:34:27.746Z,1.93
2019-05-09T06:36:58.473Z,2.20
2019-05-09T06:39:28.511Z,2.40
2019-05-09T06:41:57.536Z,2.20
2019-05-09T06:44:48.090Z,2.10
2019-05-09T06:47:25.035Z,2.20
2019-05-09T06:49:57.300Z,2.07
2019-05-09T06:52:25.321Z,1.90
2019-05-09T06:54:53.690Z,2.13
2019-05-09T06:57:22.024Z,1.87
2019-05-09T06:59:50.730Z,1.97
2019-05-09T07:02:28.175Z,1.93
2019-05-09T07:05:10.005Z,2.60
2019-05-09T07:08:00.821Z,1.80
2019-05-09T07:10:29.264Z,1.80
2019-05-09T07:12:58.480Z,1.70
2019-05-09T07:15:28.342Z,1.77
2019-05-09T07:17:57.548Z,2.10
2019-05-09T07:20:28.345Z,1.77
2019-05-09T07:22:58.261Z,1.93
2019-05-09T07:25:49.346Z,2.03
2019-05-09T07:28:18.051Z,2.07
2019-05-09T07:31:21.180Z,1.63
2019-05-09T07:34:08.890Z,2.30
2019-05-09T07:36:38.387Z,1.90
2019-05-09T07:39:08.754Z,1.80
2019-05-09T07:41:38.390Z,2.37
2019-05-09T07:44:07.679Z,1.87
2019-05-09T07:46:41.761Z,2.30
2019-05-09T07:49:13.214Z,2.07
2019-05-09T07:51:41.549Z,1.67
2019-05-09T07:54:22.095Z,1.53
2019-05-09T07:56:40.265Z,1.53
2019-05-09T07:59:08.606Z,1.60
2019-05-09T08:01:38.459Z,1.97
2019-05-09T08:04:07.653Z,1.90
2019-05-09T08:06:37.979Z,1.60
2019-05-09T08:09:08.314Z,1.37
2019-05-09T08:11:37.692Z,1.63
2019-05-09T08:14:08.449Z,1.73
2019-05-09T08:16:37.946Z,1.57
2019-05-09T08:19:07.561Z,1.17
2019-05-09T08:21:38.293Z,2.00
2019-05-09T08:24:08.093Z,1.80
2019-05-09T08:26:36.455Z,1.67
2019-05-09T08:29:04.801Z,1.30
2019-05-09T08:31:33.137Z,1.60
2019-05-09T08:34:01.477Z,1.80
2019-05-09T08:36:29.839Z,1.60
2019-05-09T08:38:58.847Z,1.83
2019-05-09T08:41:29.074Z,1.70
2019-05-09T08:43:57.759Z,1.50
2019-05-09T08:46:28.394Z,1.80
2019-05-09T08:48:57.580Z,1.73
2019-05-09T08:52:07.796Z,1.60
2019-05-09T08:54:40.513Z,1.87
2019-05-09T08:57:08.865Z,1.60
2019-05-09T08:59:38.300Z,1.80
2019-05-09T09:02:14.798Z,1.67
2019-05-09T09:04:38.387Z,2.27
2019-05-09T09:07:08.391Z,1.30
2019-05-09T09:09:37.933Z,1.47
2019-05-09T09:12:23.060Z,1.73
2019-05-09T09:14:38.440Z,1.43
2019-05-09T09:17:07.910Z,1.43
2019-05-09T09:19:38.605Z,1.60
2019-05-09T09:22:08.838Z,1.60
2019-05-09T09:24:37.853Z,2.07
2019-05-09T09:27:07.772Z,1.20
2019-05-09T09:29:37.978Z,1.47
2019-05-09T09:32:08.353Z,1.60
2019-05-09T09:34:37.949Z,2.00
2019-05-09T09:37:11.190Z,1.50
2019-05-09T09:39:44.446Z,1.27
2019-05-09T09:42:09.204Z,1.20
2019-05-09T09:44:39.326Z,1.63
2019-05-09T09:47:09.130Z,1.43
2019-05-09T09:49:38.563Z,1.50
2019-05-09T09:52:08.509Z,1.53
2019-05-09T09:54:38.673Z,1.63
2019-05-09T09:57:09.691Z,1.40
2019-05-09T09:59:43.188Z,1.50
2019-05-09T10:02:13.691Z,1.60
2019-05-09T10:04:42.648Z,1.63
2019-05-09T10:07:11.863Z,1.40
2019-05-09T10:09:40.998Z,2.10
2019-05-09T10:12:10.463Z,1.40
2019-05-09T10:14:46.254Z,1.40
2019-05-09T10:17:52.476Z,1.17
2019-05-09T10:20:38.378Z,2.50
2019-05-09T10:23:14.962Z,1.80
2019-05-09T10:25:38.266Z,1.30
2019-05-09T10:28:08.740Z,1.60
2019-05-09T10:30:38.399Z,1.60
2019-05-09T10:33:09.117Z,1.43
2019-05-09T10:35:39.178Z,1.70
2019-05-09T10:38:08.976Z,1.40
2019-05-09T10:40:39.784Z,1.57
2019-05-09T10:43:30.709Z,1.13
2019-05-09T10:46:16.331Z,1.40
2019-05-09T10:48:54.366Z,1.63
2019-05-09T10:51:23.199Z,1.50
2019-05-09T10:53:52.083Z,1.70
2019-05-09T10:56:21.265Z,1.23
2019-05-09T10:58:50.377Z,2.20
2019-05-09T11:01:19.721Z,1.70
2019-05-09T11:03:48.650Z,1.40
2019-05-09T11:06:18.339Z,1.27
2019-05-09T11:08:47.968Z,1.10
2019-05-09T11:11:18.182Z,1.60
2019-05-09T11:13:48.387Z,1.97
2019-05-09T11:16:18.351Z,1.20
2019-05-09T11:18:48.392Z,1.60
2019-05-09T11:21:19.243Z,1.40
2019-05-09T11:23:49.201Z,1.37
2019-05-09T11:26:18.531Z,1.03
2019-05-09T11:28:47.793Z,1.40
2019-05-09T11:31:18.551Z,1.37
2019-05-09T11:33:48.420Z,1.60
2019-05-09T11:36:20.636Z,1.03
2019-05-09T11:38:49.419Z,1.37
2019-05-09T11:41:19.428Z,1.37
2019-05-09T11:43:48.809Z,1.10
2019-05-09T11:46:18.314Z,1.03
2019-05-09T11:48:47.422Z,1.53
2019-05-09T11:51:20.379Z,1.10
2019-05-09T11:53:48.545Z,1.20
2019-05-09T11:56:18.124Z,1.57
2019-05-09T11:58:48.295Z,1.37
2019-05-09T12:01:19.058Z,2.07
2019-05-09T12:03:51.978Z,1.37
2019-05-09T12:06:20.171Z,1.10
2019-05-09T12:08:49.109Z,1.27
2019-05-09T12:11:18.583Z,1.53
2019-05-09T12:13:48.562Z,2.00
2019-05-09T12:16:18.700Z,1.40
2019-05-09T12:18:48.745Z,1.20
2019-05-09T12:21:19.229Z,1.63
2019-05-09T12:23:49.415Z,1.90
2019-05-09T12:26:18.896Z,1.40
2019-05-09T12:28:48.868Z,1.10
2019-05-09T12:31:18.394Z,1.47
2019-05-09T12:33:48.254Z,1.80
2019-05-09T12:36:19.189Z,1.57
2019-05-09T12:38:49.773Z,1.47
2019-05-09T12:41:19.412Z,1.27
2019-05-09T12:43:48.514Z,1.43
2019-05-09T12:46:17.670Z,1.33
2019-05-09T12:48:48.152Z,1.07
2019-05-09T12:51:18.388Z,1.10
2019-05-09T12:53:48.581Z,1.53
2019-05-09T12:56:18.689Z,1.60
2019-05-09T12:58:48.214Z,1.40
2019-05-09T13:01:18.835Z,1.50
2019-05-09T13:03:48.445Z,1.43
2019-05-09T13:06:19.952Z,1.20
2019-05-09T13:08:48.141Z,1.37
2019-05-09T13:11:18.803Z,1.40
2019-05-09T13:13:48.361Z,1.23
2019-05-09T13:16:49.048Z,1.00
2019-05-09T13:19:15.233Z,1.03
2019-05-09T13:21:44.436Z,1.93
2019-05-09T13:24:13.727Z,1.10
2019-05-09T13:26:44.230Z,1.47
2019-05-09T13:29:13.362Z,1.37
2019-05-09T13:31:42.210Z,1.13
2019-05-09T13:34:11.353Z,1.30
2019-05-09T13:36:40.197Z,1.37
2019-05-09T13:39:10.722Z,1.00
2019-05-09T13:41:40.044Z,1.30
2019-05-09T13:44:13.709Z,1.60
2019-05-09T13:46:39.717Z,1.27
2019-05-09T13:49:14.825Z,0.90
2019-05-09T13:51:50.058Z,1.13
2019-05-09T13:54:09.715Z,1.10
2019-05-09T13:56:38.656Z,1.20
2019-05-09T13:59:08.233Z,1.40
2019-05-09T14:01:37.982Z,1.33
2019-05-09T14:04:07.843Z,1.50
2019-05-09T14:06:38.819Z,1.10
2019-05-09T14:09:10.340Z,1.00
2019-05-09T14:11:39.305Z,1.00
2019-05-09T14:14:08.245Z,1.33
2019-05-09T14:16:38.945Z,1.17
2019-05-09T14:19:28.629Z,1.33
2019-05-09T14:21:38.994Z,1.13
2019-05-09T14:24:15.065Z,1.53
2019-05-09T14:26:39.734Z,1.30
2019-05-09T14:29:12.653Z,1.10
2019-05-09T14:31:39.258Z,1.10
2019-05-09T14:34:08.866Z,1.90
2019-05-09T14:36:39.121Z,1.23
2019-05-09T14:39:09.515Z,1.13
2019-05-09T14:41:39.127Z,1.33
2019-05-09T14:44:09.344Z,1.10
2019-05-09T14:46:39.209Z,1.07
2019-05-09T14:49:08.479Z,1.30
2019-05-09T14:51:38.223Z,1.20
2019-05-09T14:54:08.325Z,0.80
2019-05-09T14:56:41.906Z,1.40
2019-05-09T14:59:09.804Z,1.03
2019-05-09T15:01:43.051Z,1.07
2019-05-09T15:04:09.248Z,1.10
2019-05-09T15:06:38.167Z,1.33
2019-05-09T15:09:08.465Z,0.97
2019-05-09T15:11:39.582Z,1.50
2019-05-09T15:14:08.417Z,1.30
2019-05-09T15:16:39.186Z,1.20
2019-05-09T15:19:08.667Z,1.20
2019-05-09T15:21:38.473Z,1.43
2019-05-09T15:24:09.416Z,1.30
2019-05-09T15:26:38.927Z,1.30
2019-05-09T15:29:08.201Z,1.33
2019-05-09T15:31:39.123Z,1.00
2019-05-09T15:34:09.671Z,1.23
2019-05-09T15:36:38.797Z,1.13
2019-05-09T15:39:08.547Z,1.37
2019-05-09T15:41:38.457Z,0.90
2019-05-09T15:44:08.478Z,1.10
2019-05-09T15:46:43.514Z,1.30
2019-05-09T15:49:12.301Z,1.20
2019-05-09T15:51:41.560Z,1.13
2019-05-09T15:54:10.451Z,0.80
2019-05-09T15:56:39.286Z,0.77
2019-05-09T15:59:08.142Z,0.77
2019-05-09T16:01:38.556Z,1.17
2019-05-09T16:04:08.629Z,0.93
2019-05-09T16:06:39.129Z,1.40
2019-05-09T16:09:11.864Z,0.70
2019-05-09T16:11:38.862Z,0.70
2019-05-09T16:14:07.747Z,0.80
2019-05-09T16:16:38.544Z,0.80
2019-05-09T16:19:08.934Z,0.80
2019-05-09T16:21:38.441Z,0.60
2019-05-09T16:24:08.262Z,0.90
2019-05-09T16:26:38.259Z,0.63
2019-05-09T16:29:08.548Z,0.70
2019-05-09T16:31:38.835Z,0.63
2019-05-09T16:34:09.680Z,0.70
2019-05-09T16:36:39.087Z,1.33
2019-05-09T16:39:08.357Z,0.70
2019-05-09T16:41:39.138Z,0.80
2019-05-09T16:44:08.315Z,0.60
2019-05-09T16:46:37.753Z,0.77
2019-05-09T16:49:11.616Z,0.60
2019-05-09T16:51:37.815Z,0.60
2019-05-09T16:54:07.906Z,0.60
2019-05-09T16:56:38.109Z,0.70
2019-05-09T16:59:08.359Z,0.67
2019-05-09T17:01:39.726Z,0.73
2019-05-09T17:04:08.908Z,1.00
2019-05-09T17:06:38.392Z,0.60
2019-05-09T17:09:11.120Z,0.90
2019-05-09T17:11:40.795Z,0.50
2019-05-09T17:14:09.843Z,0.70
2019-05-09T17:16:39.139Z,0.90
2019-05-09T17:19:08.181Z,0.60
2019-05-09T17:21:58.329Z,0.80
2019-05-09T17:24:29.628Z,0.73
2019-05-09T17:26:58.120Z,0.67
2019-05-09T17:29:28.141Z,0.63
2019-05-09T17:31:58.456Z,0.60
2019-05-09T17:34:28.672Z,0.90
2019-05-09T17:36:58.196Z,0.90
2019-05-09T17:39:27.829Z,0.93
2019-05-09T17:41:58.185Z,0.60
2019-05-09T17:44:28.227Z,0.60
2019-05-09T17:46:57.948Z,0.80
2019-05-09T17:49:28.185Z,0.50
2019-05-09T17:51:58.393Z,0.77
2019-05-09T17:54:28.689Z,0.70
2019-05-09T17:56:58.031Z,0.47
2019-05-09T17:59:29.270Z,1.10
2019-05-09T18:01:57.915Z,0.77
2019-05-09T18:04:28.841Z,0.80
2019-05-09T18:06:58.464Z,0.83
2019-05-09T18:09:28.583Z,0.80
2019-05-09T18:11:58.085Z,0.70
2019-05-09T18:14:27.804Z,0.73
2019-05-09T18:16:58.111Z,0.70
2019-05-09T18:19:29.390Z,0.83
2019-05-09T18:21:58.305Z,0.77
2019-05-09T18:24:28.658Z,0.80
2019-05-09T18:26:58.404Z,0.70
2019-05-09T18:29:27.588Z,0.70
2019-05-09T18:32:19.193Z,0.50
2019-05-09T18:34:48.683Z,0.83
2019-05-09T18:37:17.916Z,0.70
2019-05-09T18:39:48.436Z,1.00
2019-05-09T18:42:17.968Z,1.03
2019-05-09T18:44:47.630Z,1.10
2019-05-09T18:47:18.461Z,0.90
2019-05-09T18:49:47.688Z,1.20
2019-05-09T18:52:17.089Z,1.27
2019-05-09T18:54:45.957Z,0.97
2019-05-09T18:57:14.749Z,1.50
2019-05-09T18:59:43.790Z,1.80
2019-05-09T19:02:12.883Z,1.70
2019-05-09T19:04:41.681Z,2.27
2019-05-09T19:07:21.820Z,2.23
2019-05-09T19:09:42.147Z,2.20
2019-05-09T19:12:11.171Z,1.67
2019-05-09T19:14:40.707Z,1.57
2019-05-09T19:17:41.234Z,1.40
2019-05-09T19:20:18.932Z,1.70
2019-05-09T19:22:47.916Z,1.87
2019-05-09T19:25:16.902Z,2.20
2019-05-09T19:27:46.233Z,1.90
2019-05-09T19:30:15.299Z,1.20
2019-05-09T19:32:44.291Z,1.20
2019-05-09T19:35:13.520Z,0.83
2019-05-09T19:37:42.444Z,1.40
2019-05-09T19:40:12.207Z,1.50
2019-05-09T19:42:41.138Z,1.53
2019-05-09T19:45:10.615Z,0.90
2019-05-09T19:47:39.419Z,0.90
2019-05-09T19:50:08.649Z,1.33
2019-05-09T19:52:38.769Z,1.10
2019-05-09T19:55:08.952Z,0.93
2019-05-09T19:57:38.123Z,0.67
2019-05-09T20:00:07.453Z,0.80
2019-05-09T20:02:36.430Z,1.10
2019-05-09T20:05:05.627Z,0.90
2019-05-09T20:07:34.538Z,1.10
2019-05-09T20:10:22.662Z,0.90
2019-05-09T20:13:10.023Z,0.80
2019-05-09T20:15:38.987Z,1.20
2019-05-09T20:18:08.263Z,0.90
2019-05-09T20:20:37.522Z,0.97
2019-05-09T20:23:06.483Z,1.00
2019-05-09T20:25:35.422Z,0.93
2019-05-09T20:28:04.267Z,1.43
2019-05-09T20:30:33.618Z,0.90
2019-05-09T20:33:02.914Z,1.20
2019-05-09T20:35:31.955Z,0.90
2019-05-09T20:38:01.360Z,0.77
2019-05-09T20:40:30.987Z,0.97
2019-05-09T20:43:00.051Z,1.13
2019-05-09T20:45:29.039Z,0.83
2019-05-09T20:47:58.199Z,0.90
2019-05-09T20:50:27.304Z,1.10
2019-05-09T20:53:09.066Z,0.87
2019-05-09T20:55:27.392Z,0.90
2019-05-09T20:57:56.549Z,1.00
2019-05-09T21:00:25.930Z,0.70
2019-05-09T21:02:55.054Z,0.97
2019-05-09T21:05:24.499Z,0.70
2019-05-09T21:07:53.832Z,0.90
2019-05-09T21:10:22.843Z,0.97
2019-05-09T21:12:51.874Z,1.23
2019-05-09T21:15:21.037Z,0.60
2019-05-09T21:17:50.090Z,0.83
2019-05-09T21:20:19.098Z,1.10
2019-05-09T21:22:48.331Z,1.37
2019-05-09T21:25:17.697Z,0.90
2019-05-09T21:27:46.907Z,0.80
2019-05-09T21:30:16.552Z,0.90
2019-05-09T21:32:45.803Z,1.37
2019-05-09T21:35:14.856Z,1.50
2019-05-09T21:37:43.789Z,1.07
2019-05-09T21:40:13.437Z,1.03
2019-05-09T21:42:42.334Z,1.37
2019-05-09T21:45:11.301Z,1.03
2019-05-09T21:47:40.305Z,1.00
2019-05-09T21:50:09.695Z,1.00
2019-05-09T21:52:38.615Z,1.37
2019-05-09T21:55:08.234Z,1.20
2019-05-09T21:57:37.638Z,1.40
2019-05-09T22:00:10.018Z,0.70
2019-05-09T22:02:39.076Z,1.20
2019-05-09T22:05:08.668Z,1.03
2019-05-09T22:07:37.511Z,0.90
2019-05-09T22:10:06.594Z,0.93
2019-05-09T22:12:35.769Z,1.00
2019-05-09T22:15:04.982Z,0.97
2019-05-09T22:17:38.467Z,0.83
2019-05-09T22:20:08.969Z,1.10
2019-05-09T22:22:37.849Z,1.13
2019-05-09T22:25:07.493Z,1.17
2019-05-09T22:27:37.121Z,1.20
2019-05-09T22:30:07.369Z,1.40
2019-05-09T22:32:36.308Z,1.10
2019-05-09T22:35:05.620Z,1.13
2019-05-09T22:37:34.467Z,1.80
2019-05-09T22:40:03.365Z,1.47
2019-05-09T22:42:32.177Z,1.40
2019-05-09T22:45:00.976Z,1.33
2019-05-09T22:47:29.777Z,1.70
2019-05-09T22:49:58.645Z,1.43
2019-05-09T22:52:28.188Z,1.23
2019-05-09T22:54:57.189Z,1.60
2019-05-09T22:57:26.499Z,1.57
2019-05-09T22:59:55.302Z,1.57
2019-05-09T23:02:24.235Z,2.30
2019-05-09T23:04:53.328Z,1.93
2019-05-09T23:07:22.123Z,1.90
2019-05-09T23:09:50.935Z,1.97
2019-05-09T23:12:19.778Z,2.00
2019-05-09T23:14:48.565Z,1.70
2019-05-09T23:17:17.693Z,1.50
2019-05-09T23:19:46.808Z,1.33
2019-05-09T23:22:15.685Z,1.57
2019-05-09T23:24:44.956Z,1.63
2019-05-09T23:27:16.616Z,1.77
2019-05-09T23:29:45.443Z,1.30
2019-05-09T23:32:33.844Z,2.20
2019-05-09T23:35:03.433Z,1.90
2019-05-09T23:37:32.276Z,1.30
2019-05-09T23:40:01.221Z,1.80
2019-05-09T23:42:30.568Z,1.50
2019-05-09T23:44:59.377Z,2.00
2019-05-09T23:47:28.484Z,1.37
2019-05-09T23:49:57.300Z,1.70
2019-05-09T23:52:26.422Z,1.83
2019-05-09T23:55:13.362Z,2.10
2019-05-09T23:58:00.503Z,2.40
